createdAt,value
2023-05-04T00:04:44.581Z,8.80
2023-05-04T00:31:59.344Z,7.80
2023-05-04T00:34:28.832Z,7.90
2023-05-04T00:49:21.837Z,7.90
2023-05-04T00:51:52.649Z,8.00
2023-05-04T01:04:15.611Z,8.10
2023-05-04T01:06:49.238Z,8.20
2023-05-04T01:09:29.450Z,7.90
2023-05-04T01:12:05.865Z,8.00
2023-05-04T01:14:35.221Z,8.20
2023-05-04T01:22:03.770Z,7.60
2023-05-04T01:24:32.232Z,7.40
2023-05-04T01:27:05.842Z,7.50
2023-05-04T01:29:39.845Z,8.20
2023-05-04T01:34:38.181Z,8.10
2023-05-04T01:54:28.398Z,7.60
2023-05-04T01:59:24.983Z,7.30
2023-05-04T02:11:48.128Z,7.50
2023-05-04T02:29:09.439Z,7.40
2023-05-04T02:43:59.514Z,6.70
2023-05-04T03:21:29.199Z,6.20
2023-05-04T03:46:15.576Z,6.70
2023-05-04T03:48:43.761Z,6.60
2023-05-04T03:51:12.026Z,6.70
2023-05-04T04:28:26.974Z,6.60
2023-05-04T04:35:53.582Z,7.20
2023-05-04T04:50:47.447Z,7.00
2023-05-04T05:10:37.117Z,7.40
2023-05-04T05:25:29.212Z,7.60
2023-05-04T05:40:23.605Z,7.60
2023-05-04T05:52:48.186Z,7.90
2023-05-04T05:57:46.255Z,7.80
2023-05-04T06:00:15.458Z,8.60
2023-05-04T06:15:10.473Z,8.90
2023-05-04T06:20:08.607Z,9.70
2023-05-04T06:32:35.302Z,9.70
2023-05-04T06:42:31.181Z,10.30
2023-05-04T06:49:57.899Z,10.70
2023-05-04T07:07:22.093Z,12.00
2023-05-04T07:12:18.685Z,11.20
2023-05-04T07:24:41.618Z,12.50
2023-05-04T07:27:10.569Z,14.00
2023-05-04T07:34:45.088Z,12.80
2023-05-04T07:39:44.869Z,12.60
2023-05-04T07:42:12.903Z,13.80
2023-05-04T07:52:07.284Z,14.10
2023-05-04T07:54:36.380Z,14.00
2023-05-04T07:57:05.975Z,14.20
2023-05-04T08:02:02.581Z,14.80
2023-05-04T08:14:26.156Z,15.40
2023-05-04T08:16:54.196Z,15.70
2023-05-04T08:21:50.686Z,15.70
2023-05-04T08:24:19.193Z,16.10
2023-05-04T08:29:33.508Z,16.60
2023-05-04T08:32:01.675Z,16.80
2023-05-04T08:36:58.263Z,17.70
2023-05-04T08:39:26.449Z,17.80
2023-05-04T08:44:23.221Z,18.60
2023-05-04T08:46:53.925Z,18.30
2023-05-04T08:49:23.436Z,18.70
2023-05-04T08:51:51.979Z,18.30
2023-05-04T08:54:21.761Z,18.20
2023-05-04T08:56:51.400Z,18.60
2023-05-04T08:59:21.411Z,18.50
2023-05-04T09:01:55.349Z,18.30
2023-05-04T09:04:25.157Z,18.20
2023-05-04T09:06:55.023Z,18.10
2023-05-04T09:09:24.449Z,18.30
2023-05-04T09:11:53.310Z,18.50
2023-05-04T09:14:23.915Z,17.60
2023-05-04T09:16:53.403Z,18.10
2023-05-04T09:19:22.359Z,18.40
2023-05-04T09:21:54.282Z,18.30
2023-05-04T09:49:08.914Z,19.10
2023-05-04T09:51:38.858Z,19.20
2023-05-04T09:56:41.659Z,19.10
2023-05-04T09:59:10.760Z,16.70
2023-05-04T10:06:36.161Z,19.10
2023-05-04T10:09:05.716Z,20.00
2023-05-04T10:11:34.053Z,19.10
2023-05-04T10:16:42.164Z,20.10
2023-05-04T10:19:29.363Z,20.40
2023-05-04T10:22:13.285Z,20.50
2023-05-04T10:25:14.125Z,20.60
2023-05-04T10:27:50.460Z,20.50
2023-05-04T10:30:20.336Z,20.70
2023-05-04T10:32:56.167Z,21.90
2023-05-04T10:35:24.625Z,20.60
2023-05-04T10:37:54.476Z,20.30
2023-05-04T10:40:36.141Z,20.30
2023-05-04T10:45:39.468Z,20.30
2023-05-04T10:48:08.902Z,20.70
2023-05-04T10:50:44.618Z,20.50
2023-05-04T10:53:13.232Z,20.20
2023-05-04T10:55:43.984Z,20.10
2023-05-04T11:00:44.850Z,20.10
2023-05-04T11:05:43.994Z,20.70
2023-05-04T11:08:19.469Z,20.70
2023-05-04T11:10:50.869Z,20.80
2023-05-04T11:15:49.133Z,20.40
2023-05-04T11:18:26.931Z,21.00
2023-05-04T11:20:56.082Z,21.80
2023-05-04T11:23:24.501Z,20.90
2023-05-04T11:25:54.787Z,20.90
2023-05-04T11:28:33.518Z,21.20
2023-05-04T11:31:13.679Z,21.00
2023-05-04T11:33:47.080Z,19.40
2023-05-04T11:38:43.858Z,21.20
2023-05-04T11:41:13.286Z,20.70
2023-05-04T11:43:43.672Z,21.70
2023-05-04T11:46:12.810Z,20.60
2023-05-04T11:48:41.279Z,20.30
2023-05-04T11:51:09.365Z,21.10
2023-05-04T11:53:41.665Z,20.70
2023-05-04T11:56:10.182Z,21.00
2023-05-04T11:58:39.522Z,21.10
2023-05-04T12:01:07.522Z,21.60
2023-05-04T12:03:51.258Z,21.60
2023-05-04T12:06:32.832Z,20.90
2023-05-04T12:09:05.781Z,21.10
2023-05-04T12:11:34.980Z,20.90
2023-05-04T12:14:06.889Z,21.10
2023-05-04T12:16:35.341Z,21.30
2023-05-04T12:19:05.867Z,21.60
2023-05-04T12:21:34.722Z,21.70
2023-05-04T12:24:03.602Z,20.70
2023-05-04T12:26:31.945Z,21.50
2023-05-04T12:28:59.968Z,21.40
2023-05-04T12:31:30.389Z,21.10
2023-05-04T12:36:26.966Z,21.00
2023-05-04T12:38:55.070Z,21.60
2023-05-04T12:41:23.357Z,21.70
2023-05-04T12:43:51.396Z,21.10
2023-05-04T12:46:21.492Z,21.00
2023-05-04T12:48:51.132Z,21.90
2023-05-04T12:51:19.322Z,21.30
2023-05-04T12:53:47.500Z,21.00
2023-05-04T12:56:15.703Z,21.00
2023-05-04T12:58:43.851Z,21.40
2023-05-04T13:01:11.958Z,22.00
2023-05-04T13:03:40.245Z,21.30
2023-05-04T13:06:09.893Z,21.80
2023-05-04T13:08:37.888Z,21.10
2023-05-04T13:11:06.361Z,20.80
2023-05-04T13:13:35.235Z,21.30
2023-05-04T13:16:03.327Z,21.40
2023-05-04T13:18:31.649Z,21.30
2023-05-04T13:20:59.661Z,22.10
2023-05-04T13:23:29.385Z,21.00
2023-05-04T13:25:57.520Z,21.80
2023-05-04T13:28:25.852Z,21.10
2023-05-04T13:30:54.254Z,22.30
2023-05-04T13:33:29.604Z,21.90
2023-05-04T13:35:58.925Z,22.10
2023-05-04T13:38:28.573Z,22.20
2023-05-04T13:40:56.736Z,22.00
2023-05-04T13:43:24.884Z,21.20
2023-05-04T13:45:53.068Z,21.70
2023-05-04T13:50:49.542Z,20.90
2023-05-04T13:53:17.654Z,22.20
2023-05-04T13:55:48.288Z,21.80
2023-05-04T13:58:16.321Z,22.50
2023-05-04T14:00:44.494Z,22.30
2023-05-04T14:03:12.671Z,22.40
2023-05-04T14:05:40.733Z,21.80
2023-05-04T14:08:08.838Z,22.50
2023-05-04T14:10:38.120Z,22.20
2023-05-04T14:13:07.565Z,22.30
2023-05-04T14:15:35.836Z,22.00
2023-05-04T14:18:04.436Z,22.30
2023-05-04T14:20:33.079Z,22.30
2023-05-04T14:23:01.208Z,22.00
2023-05-04T14:25:29.421Z,22.40
2023-05-04T14:27:57.495Z,22.50
2023-05-04T14:30:27.602Z,22.10
2023-05-04T14:32:56.769Z,22.40
2023-05-04T14:35:25.234Z,22.20
2023-05-04T14:37:53.375Z,22.40
2023-05-04T14:40:21.697Z,22.00
2023-05-04T14:47:48.374Z,22.50
2023-05-04T14:50:16.525Z,22.50
2023-05-04T14:52:44.623Z,22.70
2023-05-04T14:57:42.521Z,22.70
2023-05-04T15:00:11.879Z,21.90
2023-05-04T15:05:12.676Z,22.70
2023-05-04T15:07:41.338Z,22.20
2023-05-04T15:10:10.909Z,22.80
2023-05-04T15:12:39.608Z,22.60
2023-05-04T15:15:08.711Z,23.50
2023-05-04T15:17:36.976Z,22.40
2023-05-04T15:20:05.880Z,22.60
2023-05-04T15:22:35.729Z,23.50
2023-05-04T15:25:04.126Z,22.30
2023-05-04T15:27:32.278Z,22.30
2023-05-04T15:30:00.609Z,23.40
2023-05-04T15:32:28.853Z,23.60
2023-05-04T15:35:04.398Z,22.80
2023-05-04T15:37:35.889Z,22.70
2023-05-04T15:40:04.666Z,23.30
2023-05-04T15:42:33.151Z,23.30
2023-05-04T15:45:01.358Z,22.50
2023-05-04T15:47:29.482Z,23.40
2023-05-04T15:49:57.545Z,22.40
2023-05-04T15:52:25.955Z,22.40
2023-05-04T15:54:56.237Z,22.40
2023-05-04T15:57:24.463Z,22.80
2023-05-04T15:59:52.521Z,23.00
2023-05-04T16:02:20.883Z,23.40
2023-05-04T16:04:49.120Z,23.50
2023-05-04T16:07:17.337Z,22.30
2023-05-04T16:09:45.435Z,22.40
2023-05-04T16:12:14.926Z,22.60
2023-05-04T16:14:43.007Z,21.90
2023-05-04T16:17:11.062Z,22.00
2023-05-04T16:19:39.295Z,22.30
2023-05-04T16:22:07.464Z,22.60
2023-05-04T16:24:36.129Z,22.30
2023-05-04T16:27:04.456Z,22.50
2023-05-04T16:29:34.013Z,22.70
2023-05-04T16:32:03.048Z,23.50
2023-05-04T16:34:31.162Z,22.00
2023-05-04T16:36:59.210Z,23.30
2023-05-04T16:39:31.616Z,22.20
2023-05-04T16:41:59.921Z,22.20
2023-05-04T16:44:28.116Z,22.10
2023-05-04T16:46:57.449Z,22.00
2023-05-04T16:49:25.753Z,22.10
2023-05-04T16:51:55.325Z,21.90
2023-05-04T16:54:24.288Z,22.20
2023-05-04T16:56:53.214Z,22.00
2023-05-04T16:59:21.409Z,22.10
2023-05-04T17:04:19.376Z,21.70
2023-05-04T17:06:47.441Z,21.40
2023-05-04T17:09:15.486Z,21.60
2023-05-04T17:11:43.997Z,21.30
2023-05-04T17:14:12.122Z,20.70
2023-05-04T17:21:41.023Z,21.10
2023-05-04T17:26:37.876Z,21.10
2023-05-04T17:29:06.282Z,21.50
2023-05-04T17:31:34.430Z,21.40
2023-05-04T17:34:02.498Z,21.40
2023-05-04T17:36:32.301Z,21.50
2023-05-04T17:39:01.757Z,20.00
2023-05-04T17:41:29.863Z,21.40
2023-05-04T17:43:57.974Z,21.20
2023-05-04T17:46:26.244Z,21.10
2023-05-04T17:48:54.578Z,20.20
2023-05-04T17:51:22.848Z,21.10
2023-05-04T17:53:51.048Z,20.40
2023-05-04T17:56:21.499Z,20.60
2023-05-04T17:58:49.533Z,21.00
2023-05-04T18:01:17.681Z,20.10
2023-05-04T18:06:14.629Z,19.90
2023-05-04T18:08:42.964Z,20.30
2023-05-04T18:13:40.688Z,19.70
2023-05-04T18:16:08.776Z,19.90
2023-05-04T18:23:33.926Z,19.60
2023-05-04T18:31:00.396Z,19.60
2023-05-04T18:38:26.287Z,18.60
2023-05-04T18:43:22.955Z,18.20
2023-05-04T18:48:21.245Z,18.80
2023-05-04T18:50:54.134Z,18.30
2023-05-04T18:56:01.655Z,18.00
2023-05-04T18:58:29.825Z,18.30
2023-05-04T19:00:57.937Z,18.10
2023-05-04T19:03:27.517Z,18.20
2023-05-04T19:10:52.596Z,16.00
2023-05-04T19:18:18.098Z,16.90
2023-05-04T19:20:48.417Z,17.50
2023-05-04T19:25:45.746Z,17.00
2023-05-04T19:28:15.128Z,17.00
2023-05-04T19:30:43.188Z,16.90
2023-05-04T19:33:11.361Z,16.70
2023-05-04T19:38:09.134Z,17.10
2023-05-04T19:40:37.300Z,16.70
2023-05-04T19:45:33.732Z,16.40
2023-05-04T19:50:30.533Z,16.20
2023-05-04T19:55:28.378Z,16.30
2023-05-04T19:57:56.411Z,16.50
2023-05-04T20:02:53.031Z,16.60
2023-05-04T20:12:48.040Z,16.00
2023-05-04T20:15:16.396Z,16.30
2023-05-04T20:17:44.579Z,15.40
2023-05-04T20:20:19.014Z,15.80
2023-05-04T20:22:49.085Z,15.80
2023-05-04T20:30:16.416Z,12.30
2023-05-04T20:40:11.211Z,15.40
2023-05-04T20:45:09.392Z,15.50
2023-05-04T20:47:38.867Z,15.50
2023-05-04T20:50:10.146Z,15.60
2023-05-04T20:52:38.886Z,15.30
2023-05-04T20:55:08.287Z,15.50
2023-05-04T20:57:36.509Z,15.40
2023-05-04T21:00:06.419Z,15.30
2023-05-04T21:05:04.799Z,15.60
2023-05-04T21:12:29.614Z,15.40
2023-05-04T21:22:24.670Z,15.40
2023-05-04T21:27:21.208Z,15.60
2023-05-04T21:29:49.201Z,15.30
2023-05-04T21:39:43.723Z,15.20
2023-05-04T21:52:05.926Z,14.90
2023-05-04T21:57:03.626Z,14.80
2023-05-04T22:01:59.950Z,15.50
2023-05-04T22:04:28.693Z,14.60
2023-05-04T22:09:25.420Z,14.70
2023-05-04T22:14:23.359Z,14.60
2023-05-04T22:16:52.963Z,14.40
2023-05-04T22:19:21.245Z,14.20
2023-05-04T22:31:43.974Z,14.00
2023-05-04T22:36:40.889Z,14.00
2023-05-04T22:39:09.314Z,14.10
2023-05-04T22:44:05.954Z,14.20
2023-05-04T22:46:34.051Z,14.10
2023-05-04T22:49:04.534Z,13.70
2023-05-04T22:51:32.539Z,13.70
2023-05-04T22:58:57.498Z,13.90
2023-05-04T23:06:25.435Z,14.00
2023-05-04T23:08:53.453Z,13.80
2023-05-04T23:11:21.986Z,13.30
2023-05-04T23:13:50.003Z,13.00
2023-05-04T23:23:45.775Z,13.70
2023-05-04T23:28:42.147Z,13.20
2023-05-04T23:33:39.509Z,13.70
2023-05-04T23:36:07.822Z,13.20
2023-05-04T23:38:35.990Z,13.10
2023-05-04T23:41:05.858Z,12.90
2023-05-04T23:43:34.005Z,13.00
2023-05-04T23:48:31.775Z,13.40
2023-05-04T23:51:04.025Z,13.20
2023-05-04T23:56:03.538Z,13.20
2023-05-04T23:58:33.885Z,13.10
